sensor_id;sensor_type;location;lat;lon;timestamp;temperature;humidity
23869;DHT22;12115;47.128;15.422;2023-02-17T00:01:14;1.80;99.90
23869;DHT22;12115;47.128;15.422;2023-02-17T00:03:43;1.90;99.90
23869;DHT22;12115;47.128;15.422;2023-02-17T00:06:14;1.90;99.90
23869;DHT22;12115;47.128;15.422;2023-02-17T00:08:43;1.90;99.90
23869;DHT22;12115;47.128;15.422;2023-02-17T00:11:10;1.80;99.90
23869;DHT22;12115;47.128;15.422;2023-02-17T00:13:38;1.80;99.90
23869;DHT22;12115;47.128;15.422;2023-02-17T00:16:11;1.90;99.90
23869;DHT22;12115;47.128;15.422;2023-02-17T00:18:39;1.90;99.90
23869;DHT22;12115;47.128;15.422;2023-02-17T00:21:10;1.90;99.90
23869;DHT22;12115;47.128;15.422;2023-02-17T00:23:37;2.00;99.90
23869;DHT22;12115;47.128;15.422;2023-02-17T00:26:05;2.00;99.90
23869;DHT22;12115;47.128;15.422;2023-02-17T00:28:32;2.00;99.90
23869;DHT22;12115;47.128;15.422;2023-02-17T00:31:04;1.90;99.90
23869;DHT22;12115;47.128;15.422;2023-02-17T00:33:33;2.00;99.90
23869;DHT22;12115;47.128;15.422;2023-02-17T00:36:07;1.90;99.90
23869;DHT22;12115;47.128;15.422;2023-02-17T00:38:36;2.00;99.90
23869;DHT22;12115;47.128;15.422;2023-02-17T00:41:03;2.00;99.90
23869;DHT22;12115;47.128;15.422;2023-02-17T00:43:30;1.90;99.90
23869;DHT22;12115;47.128;15.422;2023-02-17T00:45:58;1.90;99.90
23869;DHT22;12115;47.128;15.422;2023-02-17T00:51:18;1.90;99.90
23869;DHT22;12115;47.128;15.422;2023-02-17T00:53:46;2.00;99.90
23869;DHT22;12115;47.128;15.422;2023-02-17T00:56:13;2.00;99.90
23869;DHT22;12115;47.128;15.422;2023-02-17T00:58:42;2.00;99.90
23869;DHT22;12115;47.128;15.422;2023-02-17T01:01:10;2.00;99.90
23869;DHT22;12115;47.128;15.422;2023-02-17T01:03:39;2.00;99.90
23869;DHT22;12115;47.128;15.422;2023-02-17T01:06:09;2.00;99.90
23869;DHT22;12115;47.128;15.422;2023-02-17T01:08:39;2.00;99.90
23869;DHT22;12115;47.128;15.422;2023-02-17T01:11:06;2.00;99.90
23869;DHT22;12115;47.128;15.422;2023-02-17T01:13:34;2.00;99.90
23869;DHT22;12115;47.128;15.422;2023-02-17T01:16:01;2.00;99.90
23869;DHT22;12115;47.128;15.422;2023-02-17T01:18:28;2.10;99.90
23869;DHT22;12115;47.128;15.422;2023-02-17T01:20:56;2.10;99.90
23869;DHT22;12115;47.128;15.422;2023-02-17T01:23:23;2.10;99.90
23869;DHT22;12115;47.128;15.422;2023-02-17T01:25:51;2.10;99.90
23869;DHT22;12115;47.128;15.422;2023-02-17T01:28:21;2.10;99.90
23869;DHT22;12115;47.128;15.422;2023-02-17T01:30:48;2.10;99.90
23869;DHT22;12115;47.128;15.422;2023-02-17T01:33:15;2.10;99.90
23869;DHT22;12115;47.128;15.422;2023-02-17T01:35:44;2.10;99.90
23869;DHT22;12115;47.128;15.422;2023-02-17T01:38:11;2.10;99.90
23869;DHT22;12115;47.128;15.422;2023-02-17T01:40:47;2.20;99.90
23869;DHT22;12115;47.128;15.422;2023-02-17T01:43:15;2.20;99.90
23869;DHT22;12115;47.128;15.422;2023-02-17T01:45:50;2.10;99.90
23869;DHT22;12115;47.128;15.422;2023-02-17T01:48:19;2.10;99.90
23869;DHT22;12115;47.128;15.422;2023-02-17T01:53:39;2.10;99.90
23869;DHT22;12115;47.128;15.422;2023-02-17T01:56:09;2.10;99.90
23869;DHT22;12115;47.128;15.422;2023-02-17T01:58:38;2.10;99.90
23869;DHT22;12115;47.128;15.422;2023-02-17T02:01:07;2.20;99.90
23869;DHT22;12115;47.128;15.422;2023-02-17T02:03:35;2.20;99.90
23869;DHT22;12115;47.128;15.422;2023-02-17T02:06:04;2.20;99.90
23869;DHT22;12115;47.128;15.422;2023-02-17T02:08:36;2.20;99.90
23869;DHT22;12115;47.128;15.422;2023-02-17T02:11:04;2.10;99.90
23869;DHT22;12115;47.128;15.422;2023-02-17T02:13:32;2.20;99.90
23869;DHT22;12115;47.128;15.422;2023-02-17T02:16:11;2.20;99.90
23869;DHT22;12115;47.128;15.422;2023-02-17T02:21:17;2.30;99.90
23869;DHT22;12115;47.128;15.422;2023-02-17T02:33:59;2.40;99.90
23869;DHT22;12115;47.128;15.422;2023-02-17T02:36:38;2.40;99.90
23869;DHT22;12115;47.128;15.422;2023-02-17T02:39:10;2.40;99.90
23869;DHT22;12115;47.128;15.422;2023-02-17T02:41:40;2.40;99.90
23869;DHT22;12115;47.128;15.422;2023-02-17T02:44:10;2.40;99.90
23869;DHT22;12115;47.128;15.422;2023-02-17T02:46:38;2.40;99.90
23869;DHT22;12115;47.128;15.422;2023-02-17T02:49:06;2.40;99.90
23869;DHT22;12115;47.128;15.422;2023-02-17T02:57:02;2.40;99.90
23869;DHT22;12115;47.128;15.422;2023-02-17T03:07:15;2.40;99.90
23869;DHT22;12115;47.128;15.422;2023-02-17T03:09:49;2.40;99.90
23869;DHT22;12115;47.128;15.422;2023-02-17T03:12:17;2.40;99.90
23869;DHT22;12115;47.128;15.422;2023-02-17T03:14:45;2.40;99.90
23869;DHT22;12115;47.128;15.422;2023-02-17T03:17:15;2.30;99.90
23869;DHT22;12115;47.128;15.422;2023-02-17T03:19:48;2.30;99.90
23869;DHT22;12115;47.128;15.422;2023-02-17T03:22:24;2.30;99.90
23869;DHT22;12115;47.128;15.422;2023-02-17T03:24:54;2.30;99.90
23869;DHT22;12115;47.128;15.422;2023-02-17T03:27:23;2.30;99.90
23869;DHT22;12115;47.128;15.422;2023-02-17T03:29:50;2.30;99.90
23869;DHT22;12115;47.128;15.422;2023-02-17T03:32:19;2.30;99.90
23869;DHT22;12115;47.128;15.422;2023-02-17T03:34:46;2.30;99.90
23869;DHT22;12115;47.128;15.422;2023-02-17T03:37:13;2.30;99.90
23869;DHT22;12115;47.128;15.422;2023-02-17T03:39:41;2.30;99.90
23869;DHT22;12115;47.128;15.422;2023-02-17T03:42:09;2.30;99.90
23869;DHT22;12115;47.128;15.422;2023-02-17T03:44:37;2.30;99.90
23869;DHT22;12115;47.128;15.422;2023-02-17T03:47:04;2.40;99.90
23869;DHT22;12115;47.128;15.422;2023-02-17T03:49:31;2.40;99.90
23869;DHT22;12115;47.128;15.422;2023-02-17T03:51:59;2.40;99.90
23869;DHT22;12115;47.128;15.422;2023-02-17T03:54:26;2.40;99.90
23869;DHT22;12115;47.128;15.422;2023-02-17T03:56:54;2.40;99.90
23869;DHT22;12115;47.128;15.422;2023-02-17T03:59:21;2.30;99.90
23869;DHT22;12115;47.128;15.422;2023-02-17T04:01:49;2.40;99.90
23869;DHT22;12115;47.128;15.422;2023-02-17T04:04:16;2.30;99.90
23869;DHT22;12115;47.128;15.422;2023-02-17T04:06:44;2.30;99.90
23869;DHT22;12115;47.128;15.422;2023-02-17T04:09:11;2.40;99.90
23869;DHT22;12115;47.128;15.422;2023-02-17T04:11:38;2.40;99.90
23869;DHT22;12115;47.128;15.422;2023-02-17T04:14:06;2.40;99.90
23869;DHT22;12115;47.128;15.422;2023-02-17T04:16:33;2.40;99.90
23869;DHT22;12115;47.128;15.422;2023-02-17T04:19:01;2.50;99.90
23869;DHT22;12115;47.128;15.422;2023-02-17T04:21:28;2.50;99.90
23869;DHT22;12115;47.128;15.422;2023-02-17T04:23:56;2.50;99.90
23869;DHT22;12115;47.128;15.422;2023-02-17T04:26:23;2.50;99.90
23869;DHT22;12115;47.128;15.422;2023-02-17T04:28:51;2.50;99.90
23869;DHT22;12115;47.128;15.422;2023-02-17T04:31:18;2.50;99.90
23869;DHT22;12115;47.128;15.422;2023-02-17T04:33:45;2.50;99.90
23869;DHT22;12115;47.128;15.422;2023-02-17T04:36:13;2.50;99.90
23869;DHT22;12115;47.128;15.422;2023-02-17T04:38:40;2.60;99.90
23869;DHT22;12115;47.128;15.422;2023-02-17T04:41:07;2.50;99.90
23869;DHT22;12115;47.128;15.422;2023-02-17T04:43:35;2.50;99.90
23869;DHT22;12115;47.128;15.422;2023-02-17T04:46:02;2.50;99.90
23869;DHT22;12115;47.128;15.422;2023-02-17T04:48:30;2.50;99.90
23869;DHT22;12115;47.128;15.422;2023-02-17T04:50:57;2.50;99.90
23869;DHT22;12115;47.128;15.422;2023-02-17T04:53:25;2.60;99.90
23869;DHT22;12115;47.128;15.422;2023-02-17T04:55:52;2.60;99.90
23869;DHT22;12115;47.128;15.422;2023-02-17T04:58:19;2.60;99.90
23869;DHT22;12115;47.128;15.422;2023-02-17T05:00:47;2.60;99.90
23869;DHT22;12115;47.128;15.422;2023-02-17T05:03:15;2.60;99.90
23869;DHT22;12115;47.128;15.422;2023-02-17T05:05:42;2.60;99.90
23869;DHT22;12115;47.128;15.422;2023-02-17T05:08:10;2.60;99.90
23869;DHT22;12115;47.128;15.422;2023-02-17T05:10:37;2.60;99.90
23869;DHT22;12115;47.128;15.422;2023-02-17T05:13:07;2.60;99.90
23869;DHT22;12115;47.128;15.422;2023-02-17T05:15:34;2.50;99.90
23869;DHT22;12115;47.128;15.422;2023-02-17T05:18:02;2.50;99.90
23869;DHT22;12115;47.128;15.422;2023-02-17T05:20:29;2.50;99.90
23869;DHT22;12115;47.128;15.422;2023-02-17T05:22:57;2.50;99.90
23869;DHT22;12115;47.128;15.422;2023-02-17T05:25:24;2.50;99.90
23869;DHT22;12115;47.128;15.422;2023-02-17T05:27:52;2.50;99.90
23869;DHT22;12115;47.128;15.422;2023-02-17T05:30:19;2.50;99.90
23869;DHT22;12115;47.128;15.422;2023-02-17T05:32:46;2.40;99.90
23869;DHT22;12115;47.128;15.422;2023-02-17T05:35:14;2.40;99.90
23869;DHT22;12115;47.128;15.422;2023-02-17T05:37:42;2.40;99.90
23869;DHT22;12115;47.128;15.422;2023-02-17T05:40:09;2.40;99.90
23869;DHT22;12115;47.128;15.422;2023-02-17T05:42:37;2.30;99.90
23869;DHT22;12115;47.128;15.422;2023-02-17T05:45:04;2.40;99.90
23869;DHT22;12115;47.128;15.422;2023-02-17T05:47:31;2.30;99.90
23869;DHT22;12115;47.128;15.422;2023-02-17T05:49:58;2.10;99.90
23869;DHT22;12115;47.128;15.422;2023-02-17T05:52:26;2.10;99.90
23869;DHT22;12115;47.128;15.422;2023-02-17T05:54:53;2.10;99.90
23869;DHT22;12115;47.128;15.422;2023-02-17T05:57:20;2.10;99.90
23869;DHT22;12115;47.128;15.422;2023-02-17T05:59:52;2.00;99.90
23869;DHT22;12115;47.128;15.422;2023-02-17T06:02:19;2.10;99.90
23869;DHT22;12115;47.128;15.422;2023-02-17T06:04:47;2.10;99.90
23869;DHT22;12115;47.128;15.422;2023-02-17T06:07:14;2.00;99.90
23869;DHT22;12115;47.128;15.422;2023-02-17T06:09:42;2.00;99.90
23869;DHT22;12115;47.128;15.422;2023-02-17T06:12:12;2.10;99.90
23869;DHT22;12115;47.128;15.422;2023-02-17T06:14:39;2.00;99.90
23869;DHT22;12115;47.128;15.422;2023-02-17T06:17:06;2.00;99.90
23869;DHT22;12115;47.128;15.422;2023-02-17T06:19:34;2.00;99.90
23869;DHT22;12115;47.128;15.422;2023-02-17T06:22:01;2.00;99.90
23869;DHT22;12115;47.128;15.422;2023-02-17T06:24:28;2.00;99.90
23869;DHT22;12115;47.128;15.422;2023-02-17T06:26:56;1.90;99.90
23869;DHT22;12115;47.128;15.422;2023-02-17T06:29:23;1.90;99.90
23869;DHT22;12115;47.128;15.422;2023-02-17T06:31:51;1.90;99.90
23869;DHT22;12115;47.128;15.422;2023-02-17T06:34:18;1.90;99.90
23869;DHT22;12115;47.128;15.422;2023-02-17T06:36:45;1.90;99.90
23869;DHT22;12115;47.128;15.422;2023-02-17T06:39:13;1.90;99.90
23869;DHT22;12115;47.128;15.422;2023-02-17T06:41:40;1.90;99.90
23869;DHT22;12115;47.128;15.422;2023-02-17T06:44:08;1.90;99.90
23869;DHT22;12115;47.128;15.422;2023-02-17T06:46:36;2.00;99.90
23869;DHT22;12115;47.128;15.422;2023-02-17T06:49:03;2.00;99.90
23869;DHT22;12115;47.128;15.422;2023-02-17T06:51:31;2.10;99.90
23869;DHT22;12115;47.128;15.422;2023-02-17T06:53:58;2.20;99.90
23869;DHT22;12115;47.128;15.422;2023-02-17T06:56:25;2.30;99.90
23869;DHT22;12115;47.128;15.422;2023-02-17T06:58:56;2.40;99.90
23869;DHT22;12115;47.128;15.422;2023-02-17T07:01:24;2.50;99.90
23869;DHT22;12115;47.128;15.422;2023-02-17T07:03:52;2.60;99.90
23869;DHT22;12115;47.128;15.422;2023-02-17T07:06:22;2.70;99.90
23869;DHT22;12115;47.128;15.422;2023-02-17T07:08:49;2.80;99.90
23869;DHT22;12115;47.128;15.422;2023-02-17T07:11:17;2.90;99.90
23869;DHT22;12115;47.128;15.422;2023-02-17T07:13:44;3.10;99.90
23869;DHT22;12115;47.128;15.422;2023-02-17T07:16:12;3.30;99.90
23869;DHT22;12115;47.128;15.422;2023-02-17T07:18:40;3.70;99.90
23869;DHT22;12115;47.128;15.422;2023-02-17T07:21:07;4.20;99.90
23869;DHT22;12115;47.128;15.422;2023-02-17T07:23:35;4.80;99.90
23869;DHT22;12115;47.128;15.422;2023-02-17T07:26:04;5.50;99.90
23869;DHT22;12115;47.128;15.422;2023-02-17T07:28:32;6.20;99.90
23869;DHT22;12115;47.128;15.422;2023-02-17T07:31:06;6.70;99.90
23869;DHT22;12115;47.128;15.422;2023-02-17T07:33:33;7.10;99.90
23869;DHT22;12115;47.128;15.422;2023-02-17T07:36:05;7.60;99.90
23869;DHT22;12115;47.128;15.422;2023-02-17T07:38:33;7.90;99.90
23869;DHT22;12115;47.128;15.422;2023-02-17T07:41:07;8.60;99.90
23869;DHT22;12115;47.128;15.422;2023-02-17T07:43:35;8.80;99.90
23869;DHT22;12115;47.128;15.422;2023-02-17T07:49:37;8.90;99.90
23869;DHT22;12115;47.128;15.422;2023-02-17T07:52:05;9.20;99.90
23869;DHT22;12115;47.128;15.422;2023-02-17T07:54:32;9.90;99.10
23869;DHT22;12115;47.128;15.422;2023-02-17T07:57:00;10.30;97.90
23869;DHT22;12115;47.128;15.422;2023-02-17T07:59:28;11.00;97.00
23869;DHT22;12115;47.128;15.422;2023-02-17T08:01:55;11.70;95.80
23869;DHT22;12115;47.128;15.422;2023-02-17T08:04:23;12.20;94.00
23869;DHT22;12115;47.128;15.422;2023-02-17T08:06:50;12.40;93.70
23869;DHT22;12115;47.128;15.422;2023-02-17T08:09:17;12.70;93.20
23869;DHT22;12115;47.128;15.422;2023-02-17T08:12:03;13.20;92.30
23869;DHT22;12115;47.128;15.422;2023-02-17T08:14:49;13.30;91.50
23869;DHT22;12115;47.128;15.422;2023-02-17T08:17:16;13.30;90.30
23869;DHT22;12115;47.128;15.422;2023-02-17T08:19:44;13.40;90.00
23869;DHT22;12115;47.128;15.422;2023-02-17T08:22:15;14.00;88.20
23869;DHT22;12115;47.128;15.422;2023-02-17T08:24:43;14.80;84.40
23869;DHT22;12115;47.128;15.422;2023-02-17T08:27:11;15.40;82.10
23869;DHT22;12115;47.128;15.422;2023-02-17T08:29:40;16.20;80.50
23869;DHT22;12115;47.128;15.422;2023-02-17T08:32:08;17.20;77.30
23869;DHT22;12115;47.128;15.422;2023-02-17T08:34:35;18.10;73.90
23869;DHT22;12115;47.128;15.422;2023-02-17T08:37:04;18.40;69.40
23869;DHT22;12115;47.128;15.422;2023-02-17T08:39:32;19.00;66.60
23869;DHT22;12115;47.128;15.422;2023-02-17T08:42:00;19.60;64.40
23869;DHT22;12115;47.128;15.422;2023-02-17T08:44:27;19.70;60.60
23869;DHT22;12115;47.128;15.422;2023-02-17T08:46:55;20.60;59.90
23869;DHT22;12115;47.128;15.422;2023-02-17T08:49:23;21.30;56.00
23869;DHT22;12115;47.128;15.422;2023-02-17T08:51:51;21.60;55.70
23869;DHT22;12115;47.128;15.422;2023-02-17T08:54:19;22.30;55.20
23869;DHT22;12115;47.128;15.422;2023-02-17T08:56:46;23.30;52.20
23869;DHT22;12115;47.128;15.422;2023-02-17T08:59:14;23.80;49.10
23869;DHT22;12115;47.128;15.422;2023-02-17T09:01:42;24.10;48.80
23869;DHT22;12115;47.128;15.422;2023-02-17T09:04:10;25.10;48.00
23869;DHT22;12115;47.128;15.422;2023-02-17T09:06:43;26.60;47.00
23869;DHT22;12115;47.128;15.422;2023-02-17T09:09:11;27.00;45.50
23869;DHT22;12115;47.128;15.422;2023-02-17T09:11:38;27.40;43.80
23869;DHT22;12115;47.128;15.422;2023-02-17T09:14:06;26.20;42.60
23869;DHT22;12115;47.128;15.422;2023-02-17T09:16:34;25.30;43.40
23869;DHT22;12115;47.128;15.422;2023-02-17T09:19:02;24.30;44.80
23869;DHT22;12115;47.128;15.422;2023-02-17T09:21:29;22.60;47.30
23869;DHT22;12115;47.128;15.422;2023-02-17T09:23:57;22.90;46.90
23869;DHT22;12115;47.128;15.422;2023-02-17T09:26:24;25.30;44.30
23869;DHT22;12115;47.128;15.422;2023-02-17T09:28:52;23.80;45.00
23869;DHT22;12115;47.128;15.422;2023-02-17T09:31:20;25.60;43.20
23869;DHT22;12115;47.128;15.422;2023-02-17T09:33:48;25.90;43.30
23869;DHT22;12115;47.128;15.422;2023-02-17T09:36:21;26.00;41.00
23869;DHT22;12115;47.128;15.422;2023-02-17T09:38:49;25.40;41.40
23869;DHT22;12115;47.128;15.422;2023-02-17T09:41:19;24.80;40.90
23869;DHT22;12115;47.128;15.422;2023-02-17T09:43:47;24.90;42.50
23869;DHT22;12115;47.128;15.422;2023-02-17T09:48:51;25.30;42.80
23869;DHT22;12115;47.128;15.422;2023-02-17T09:51:29;24.90;41.10
23869;DHT22;12115;47.128;15.422;2023-02-17T09:54:02;25.40;41.20
23869;DHT22;12115;47.128;15.422;2023-02-17T09:56:37;24.80;41.90
23869;DHT22;12115;47.128;15.422;2023-02-17T09:59:07;24.30;43.30
23869;DHT22;12115;47.128;15.422;2023-02-17T10:01:37;22.90;42.10
23869;DHT22;12115;47.128;15.422;2023-02-17T10:04:11;24.90;41.30
23869;DHT22;12115;47.128;15.422;2023-02-17T10:06:43;27.50;38.10
23869;DHT22;12115;47.128;15.422;2023-02-17T10:14:27;29.40;34.00
23869;DHT22;12115;47.128;15.422;2023-02-17T10:17:12;28.20;36.50
23869;DHT22;12115;47.128;15.422;2023-02-17T10:19:48;29.20;37.20
23869;DHT22;12115;47.128;15.422;2023-02-17T10:22:18;30.60;34.70
23869;DHT22;12115;47.128;15.422;2023-02-17T10:24:46;30.30;33.30
23869;DHT22;12115;47.128;15.422;2023-02-17T10:35:07;31.90;32.30
23869;DHT22;12115;47.128;15.422;2023-02-17T10:37:46;31.10;31.90
23869;DHT22;12115;47.128;15.422;2023-02-17T10:42:45;26.00;36.50
23869;DHT22;12115;47.128;15.422;2023-02-17T10:48:05;24.10;40.20
23869;DHT22;12115;47.128;15.422;2023-02-17T10:50:33;27.60;35.10
23869;DHT22;12115;47.128;15.422;2023-02-17T10:53:10;29.60;33.70
23869;DHT22;12115;47.128;15.422;2023-02-17T10:55:45;30.70;32.60
23869;DHT22;12115;47.128;15.422;2023-02-17T10:58:18;31.30;31.10
23869;DHT22;12115;47.128;15.422;2023-02-17T11:00:48;30.50;31.30
23869;DHT22;12115;47.128;15.422;2023-02-17T11:03:18;30.50;31.70
23869;DHT22;12115;47.128;15.422;2023-02-17T11:05:56;29.20;31.50
23869;DHT22;12115;47.128;15.422;2023-02-17T11:08:31;26.40;34.50
23869;DHT22;12115;47.128;15.422;2023-02-17T11:11:04;23.90;38.00
23869;DHT22;12115;47.128;15.422;2023-02-17T11:13:36;22.70;40.50
23869;DHT22;12115;47.128;15.422;2023-02-17T11:16:04;22.00;41.90
23869;DHT22;12115;47.128;15.422;2023-02-17T11:18:34;21.40;42.30
23869;DHT22;12115;47.128;15.422;2023-02-17T11:21:06;21.10;43.10
23869;DHT22;12115;47.128;15.422;2023-02-17T11:23:35;21.10;43.40
23869;DHT22;12115;47.128;15.422;2023-02-17T11:26:10;20.80;44.20
23869;DHT22;12115;47.128;15.422;2023-02-17T11:28:37;19.90;44.50
23869;DHT22;12115;47.128;15.422;2023-02-17T11:31:05;19.40;46.00
23869;DHT22;12115;47.128;15.422;2023-02-17T11:33:34;19.40;46.60
23869;DHT22;12115;47.128;15.422;2023-02-17T11:36:02;19.10;46.30
23869;DHT22;12115;47.128;15.422;2023-02-17T11:41:04;19.40;46.90
23869;DHT22;12115;47.128;15.422;2023-02-17T11:43:34;19.50;46.50
23869;DHT22;12115;47.128;15.422;2023-02-17T11:46:05;19.40;46.20
23869;DHT22;12115;47.128;15.422;2023-02-17T11:48:47;19.30;46.20
23869;DHT22;12115;47.128;15.422;2023-02-17T11:56:58;18.70;46.00
23869;DHT22;12115;47.128;15.422;2023-02-17T12:02:14;18.70;46.70
23869;DHT22;12115;47.128;15.422;2023-02-17T12:10:40;18.20;47.30
23869;DHT22;12115;47.128;15.422;2023-02-17T12:13:19;18.00;47.60
23869;DHT22;12115;47.128;15.422;2023-02-17T12:16:07;18.00;47.70
23869;DHT22;12115;47.128;15.422;2023-02-17T12:34:02;17.60;48.50
23869;DHT22;12115;47.128;15.422;2023-02-17T12:36:33;17.60;48.60
23869;DHT22;12115;47.128;15.422;2023-02-17T12:39:04;17.60;48.60
23869;DHT22;12115;47.128;15.422;2023-02-17T12:41:40;17.40;49.00
23869;DHT22;12115;47.128;15.422;2023-02-17T12:46:47;17.30;49.90
23869;DHT22;12115;47.128;15.422;2023-02-17T12:52:22;17.30;49.40
23869;DHT22;12115;47.128;15.422;2023-02-17T12:59:46;17.00;49.50
23869;DHT22;12115;47.128;15.422;2023-02-17T13:04:41;16.90;50.00
23869;DHT22;12115;47.128;15.422;2023-02-17T13:07:13;16.80;50.40
23869;DHT22;12115;47.128;15.422;2023-02-17T13:09:46;16.80;50.00
23869;DHT22;12115;47.128;15.422;2023-02-17T13:14:53;16.70;51.50
23869;DHT22;12115;47.128;15.422;2023-02-17T13:18:06;16.60;51.60
23869;DHT22;12115;47.128;15.422;2023-02-17T13:22:37;16.50;51.40
23869;DHT22;12115;47.128;15.422;2023-02-17T13:25:05;16.50;52.10
23869;DHT22;12115;47.128;15.422;2023-02-17T13:32:27;16.40;52.80
23869;DHT22;12115;47.128;15.422;2023-02-17T13:34:58;16.30;53.40
23869;DHT22;12115;47.128;15.422;2023-02-17T13:39:59;16.40;53.60
23869;DHT22;12115;47.128;15.422;2023-02-17T13:44:53;16.40;53.90
23869;DHT22;12115;47.128;15.422;2023-02-17T13:47:38;16.20;53.50
23869;DHT22;12115;47.128;15.422;2023-02-17T13:50:05;16.10;53.90
23869;DHT22;12115;47.128;15.422;2023-02-17T13:52:33;16.10;53.60
23869;DHT22;12115;47.128;15.422;2023-02-17T13:55:01;16.20;53.50
23869;DHT22;12115;47.128;15.422;2023-02-17T13:57:29;16.20;52.90
23869;DHT22;12115;47.128;15.422;2023-02-17T14:02:57;16.10;52.30
23869;DHT22;12115;47.128;15.422;2023-02-17T14:08:04;16.10;53.00
23869;DHT22;12115;47.128;15.422;2023-02-17T14:10:32;16.00;52.80
23869;DHT22;12115;47.128;15.422;2023-02-17T14:12:59;16.00;53.00
23869;DHT22;12115;47.128;15.422;2023-02-17T14:15:26;16.00;52.70
23869;DHT22;12115;47.128;15.422;2023-02-17T14:17:54;16.00;52.60
23869;DHT22;12115;47.128;15.422;2023-02-17T14:22:58;16.00;52.50
23869;DHT22;12115;47.128;15.422;2023-02-17T14:25:30;16.00;52.10
23869;DHT22;12115;47.128;15.422;2023-02-17T14:27:58;16.00;52.20
23869;DHT22;12115;47.128;15.422;2023-02-17T14:30:33;16.00;52.20
23869;DHT22;12115;47.128;15.422;2023-02-17T14:33:16;15.90;52.00
23869;DHT22;12115;47.128;15.422;2023-02-17T14:35:57;15.90;52.20
23869;DHT22;12115;47.128;15.422;2023-02-17T14:38:25;15.80;52.30
23869;DHT22;12115;47.128;15.422;2023-02-17T14:40:52;15.70;52.20
23869;DHT22;12115;47.128;15.422;2023-02-17T14:43:21;15.80;52.60
23869;DHT22;12115;47.128;15.422;2023-02-17T14:45:49;15.80;53.80
23869;DHT22;12115;47.128;15.422;2023-02-17T14:48:16;15.80;55.00
23869;DHT22;12115;47.128;15.422;2023-02-17T14:50:44;15.70;56.30
23869;DHT22;12115;47.128;15.422;2023-02-17T14:55:52;15.70;57.40
23869;DHT22;12115;47.128;15.422;2023-02-17T14:58:22;15.60;57.90
23869;DHT22;12115;47.128;15.422;2023-02-17T15:00:49;15.60;58.10
23869;DHT22;12115;47.128;15.422;2023-02-17T15:03:17;15.50;57.60
23869;DHT22;12115;47.128;15.422;2023-02-17T15:05:44;15.50;57.20
23869;DHT22;12115;47.128;15.422;2023-02-17T15:08:12;15.40;57.80
23869;DHT22;12115;47.128;15.422;2023-02-17T15:10:40;15.40;58.00
23869;DHT22;12115;47.128;15.422;2023-02-17T15:13:15;15.30;61.10
23869;DHT22;12115;47.128;15.422;2023-02-17T15:15:42;15.20;60.60
23869;DHT22;12115;47.128;15.422;2023-02-17T15:18:11;15.10;61.80
23869;DHT22;12115;47.128;15.422;2023-02-17T15:20:39;14.90;63.50
23869;DHT22;12115;47.128;15.422;2023-02-17T15:23:24;14.90;62.90
23869;DHT22;12115;47.128;15.422;2023-02-17T15:25:51;14.90;61.90
23869;DHT22;12115;47.128;15.422;2023-02-17T15:28:21;14.90;61.40
23869;DHT22;12115;47.128;15.422;2023-02-17T15:30:49;14.80;61.50
23869;DHT22;12115;47.128;15.422;2023-02-17T15:33:17;14.80;61.70
23869;DHT22;12115;47.128;15.422;2023-02-17T15:35:47;14.70;61.40
23869;DHT22;12115;47.128;15.422;2023-02-17T15:38:15;14.70;63.10
23869;DHT22;12115;47.128;15.422;2023-02-17T15:40:41;14.50;63.70
23869;DHT22;12115;47.128;15.422;2023-02-17T15:43:10;14.50;63.70
23869;DHT22;12115;47.128;15.422;2023-02-17T15:45:41;14.40;63.50
23869;DHT22;12115;47.128;15.422;2023-02-17T15:48:27;14.40;62.60
23869;DHT22;12115;47.128;15.422;2023-02-17T15:50:57;14.30;63.00
23869;DHT22;12115;47.128;15.422;2023-02-17T15:53:24;14.20;63.80
23869;DHT22;12115;47.128;15.422;2023-02-17T15:55:52;14.00;66.40
23869;DHT22;12115;47.128;15.422;2023-02-17T15:58:19;13.90;66.60
23869;DHT22;12115;47.128;15.422;2023-02-17T16:00:47;13.90;65.40
23869;DHT22;12115;47.128;15.422;2023-02-17T16:03:17;13.80;65.10
23869;DHT22;12115;47.128;15.422;2023-02-17T16:05:44;13.80;65.10
23869;DHT22;12115;47.128;15.422;2023-02-17T16:08:13;13.70;65.20
23869;DHT22;12115;47.128;15.422;2023-02-17T16:10:40;13.60;65.50
23869;DHT22;12115;47.128;15.422;2023-02-17T16:13:14;13.50;65.20
23869;DHT22;12115;47.128;15.422;2023-02-17T16:15:43;13.60;64.90
23869;DHT22;12115;47.128;15.422;2023-02-17T16:18:15;13.40;66.70
23869;DHT22;12115;47.128;15.422;2023-02-17T16:20:45;13.30;67.80
23869;DHT22;12115;47.128;15.422;2023-02-17T16:23:13;13.20;67.30
23869;DHT22;12115;47.128;15.422;2023-02-17T16:25:44;13.10;67.00
23869;DHT22;12115;47.128;15.422;2023-02-17T16:28:17;13.10;66.90
23869;DHT22;12115;47.128;15.422;2023-02-17T16:30:46;13.00;68.20
23869;DHT22;12115;47.128;15.422;2023-02-17T16:33:15;12.80;69.00
23869;DHT22;12115;47.128;15.422;2023-02-17T16:35:44;12.80;69.90
23869;DHT22;12115;47.128;15.422;2023-02-17T16:40:39;12.70;69.60
23869;DHT22;12115;47.128;15.422;2023-02-17T16:43:14;12.60;70.20
23869;DHT22;12115;47.128;15.422;2023-02-17T16:45:52;12.50;69.70
23869;DHT22;12115;47.128;15.422;2023-02-17T16:48:23;12.40;70.00
23869;DHT22;12115;47.128;15.422;2023-02-17T16:50:50;12.30;70.00
23869;DHT22;12115;47.128;15.422;2023-02-17T16:53:18;12.10;71.70
23869;DHT22;12115;47.128;15.422;2023-02-17T16:55:45;12.10;71.90
23869;DHT22;12115;47.128;15.422;2023-02-17T16:58:14;12.00;71.40
23869;DHT22;12115;47.128;15.422;2023-02-17T17:00:41;12.00;71.70
23869;DHT22;12115;47.128;15.422;2023-02-17T17:03:19;12.00;71.90
23869;DHT22;12115;47.128;15.422;2023-02-17T17:05:50;11.90;72.00
23869;DHT22;12115;47.128;15.422;2023-02-17T17:08:18;11.80;72.20
23869;DHT22;12115;47.128;15.422;2023-02-17T17:10:48;11.80;71.70
23869;DHT22;12115;47.128;15.422;2023-02-17T17:13:15;11.60;72.50
23869;DHT22;12115;47.128;15.422;2023-02-17T17:15:43;11.50;72.90
23869;DHT22;12115;47.128;15.422;2023-02-17T17:18:16;11.60;72.70
23869;DHT22;12115;47.128;15.422;2023-02-17T17:20:44;11.50;72.80
23869;DHT22;12115;47.128;15.422;2023-02-17T17:23:12;11.50;72.90
23869;DHT22;12115;47.128;15.422;2023-02-17T17:25:41;11.50;73.20
23869;DHT22;12115;47.128;15.422;2023-02-17T17:28:13;11.40;73.70
23869;DHT22;12115;47.128;15.422;2023-02-17T17:30:41;11.30;73.80
23869;DHT22;12115;47.128;15.422;2023-02-17T17:33:08;11.30;74.50
23869;DHT22;12115;47.128;15.422;2023-02-17T17:35:35;11.20;74.60
23869;DHT22;12115;47.128;15.422;2023-02-17T17:38:03;11.20;74.30
23869;DHT22;12115;47.128;15.422;2023-02-17T17:40:32;11.20;74.40
23869;DHT22;12115;47.128;15.422;2023-02-17T17:43:00;11.10;75.40
23869;DHT22;12115;47.128;15.422;2023-02-17T17:45:28;11.10;74.40